Impacts METAR Board INFO
IDs:

KATL - Atlanta/Hartsfield-J, GA, US

Updated at: 0946 UTC 19 Jan 2018
Potential Impact None Slight Moderate High
Time18/21Z 18/22Z 18/23Z 19/00Z 19/01Z 19/02Z 19/03Z 19/04Z 19/05Z 19/06Z 19/07Z 19/08Z 19/09Z
VIS10 10 10 10 10 10 10 10 10 10 10 10 10
CIG-- -- -- -- -- -- -- -- -- -- -- -- --
CoverCLRCLRCLRCLRCLRCLRCLRCLRCLRCLRCLRCLRCLR
FltCatVFRVFRVFRVFRVFRVFRVFRVFRVFRVFRVFRVFRVFR
WX--------------------------
WDir330320280300310310310290280300300280300
WSpd10 11 8 8 8 7 7 5 7 6 7 4 7
WGst-- -- -- -- -- -- -- -- -- -- -- -- --
Raw hourly METARs
KATL 182052Z 33010KT 10SM CLR 04/M10 A3033 RMK AO2 SLP284 T00441100 56015
KATL 182152Z 32011KT 10SM CLR 04/M11 A3033 RMK AO2 SLP282 T00441106
KATL 182252Z 28008KT 10SM CLR 03/M10 A3034 RMK AO2 SLP286 T00281100
KATL 182352Z 30008KT 10SM CLR 02/M10 A3033 RMK AO2 SLP286 4/001 T00171100 10050 20011 54000
KATL 190052Z 31008KT 10SM CLR 01/M11 A3034 RMK AO2 SLP287 T00061106
KATL 190152Z 31007KT 10SM CLR 00/M11 A3032 RMK AO2 SLP282 T00001106
KATL 190252Z 31007KT 10SM CLR M01/M11 A3032 RMK AO2 SLP279 T10111106 58005
KATL 190352Z 29005KT 10SM CLR M01/M11 A3032 RMK AO2 SLP280 T10111111
KATL 190452Z 28007KT 10SM CLR M02/M11 A3032 RMK AO2 SLP277 T10171106 400501094
KATL 190552Z 30006KT 10SM CLR M02/M11 A3030 RMK AO2 SLP270 4/001 T10221106 10017 21022 58007
KATL 190652Z 30007KT 10SM CLR M02/M10 A3029 RMK AO2 SLP268 T10221100
KATL 190752Z 28004KT 10SM CLR M03/M10 A3029 RMK AO2 SLP266 T10281100
KATL 190852Z 30007KT 10SM CLR M03/M10 A3029 RMK AO2 SLP265 T10281100 58003